Time;durP1;ratioP1;P1;durP2;ratioP2;P2;SDS_P1;SDS_P2;PMS_P1;PMS_P2;Temp;Humidity;BMP_temperature;BMP_pressure;BME280_temperature;BME280_humidity;BME280_pressure;Samples;Min_cycle;Max_cycle;Signal;HPM_P1;HPM_P2
2022/10/31 00:01:53;0.00;0.00;0.62;0.00;0.00;0.62;3.17;2.77;;;30.60;29.20;;;;;;2265241;61;20365;-67
2022/10/31 00:04:39;0.00;0.00;0.62;0.00;0.00;0.62;3.80;3.30;;;30.60;29.20;;;;;;2264705;61;20396;-67
2022/10/31 00:07:24;0.00;0.00;0.62;0.00;0.00;0.62;4.67;4.17;;;30.60;29.10;;;;;;2265999;61;20464;-67
2022/10/31 00:10:09;0.00;0.00;0.62;0.00;0.00;0.62;4.33;3.70;;;30.50;29.00;;;;;;2265823;61;20392;-67
2022/10/31 00:12:54;0.00;0.00;0.62;0.00;0.00;0.62;4.13;3.63;;;30.60;29.10;;;;;;2265235;61;20453;-67
2022/10/31 00:15:40;0.00;0.00;0.62;0.00;0.00;0.62;5.00;4.10;;;30.50;29.00;;;;;;2266079;61;20392;-67
2022/10/31 00:18:25;0.00;0.00;0.62;0.00;0.00;0.62;4.60;4.10;;;30.50;29.00;;;;;;2265898;61;20361;-67
2022/10/31 00:21:11;0.00;0.00;0.62;0.00;0.00;0.62;4.47;3.77;;;30.50;28.90;;;;;;2264869;61;20442;-67
2022/10/31 00:23:56;0.00;0.00;0.62;0.00;0.00;0.62;5.70;4.23;;;30.50;28.90;;;;;;2265895;61;20364;-68
2022/10/31 00:26:41;0.00;0.00;0.62;0.00;0.00;0.62;4.70;4.20;;;30.50;28.90;;;;;;2265360;61;20396;-67
2022/10/31 00:29:26;0.00;0.00;0.62;0.00;0.00;0.62;5.10;4.60;;;30.50;28.90;;;;;;2266171;61;20772;-68
2022/10/31 00:32:10;0.00;0.00;0.62;0.00;0.00;0.62;6.23;4.87;;;30.50;28.90;;;;;;2265705;61;20369;-68
2022/10/31 00:34:55;0.00;0.00;0.62;0.00;0.00;0.62;6.13;4.23;;;30.50;28.90;;;;;;2264921;61;20423;-67
2022/10/31 00:37:41;0.00;0.00;0.62;0.00;0.00;0.62;6.27;4.77;;;30.50;28.80;;;;;;2266153;61;20361;-67
2022/10/31 00:40:26;0.00;0.00;0.62;0.00;0.00;0.62;4.17;3.77;;;30.40;28.80;;;;;;2265241;61;20435;-67
2022/10/31 00:43:11;0.00;0.00;0.62;0.00;0.00;0.62;5.27;3.97;;;30.40;28.70;;;;;;2264687;61;20445;-68
2022/10/31 00:45:56;0.00;0.00;0.62;0.00;0.00;0.62;5.37;4.70;;;30.40;29.30;;;;;;2265786;61;20432;-67
2022/10/31 00:48:42;0.00;0.00;0.62;0.00;0.00;0.62;5.73;4.20;;;30.40;28.80;;;;;;2264925;61;20408;-68
2022/10/31 00:51:27;0.00;0.00;0.62;0.00;0.00;0.62;4.83;4.40;;;30.40;28.70;;;;;;2266158;61;20706;-67
2022/10/31 00:54:13;0.00;0.00;0.62;0.00;0.00;0.62;4.40;4.00;;;30.30;28.70;;;;;;2265008;61;20403;-67
2022/10/31 00:56:58;0.00;0.00;0.62;0.00;0.00;0.62;5.70;4.63;;;30.40;28.80;;;;;;2264758;61;20388;-68
2022/10/31 00:59:43;0.00;0.00;0.62;0.00;0.00;0.62;7.10;5.53;;;30.30;28.70;;;;;;2265572;61;20725;-67
2022/10/31 01:02:27;0.00;0.00;0.62;0.00;0.00;0.62;6.27;5.37;;;30.30;28.70;;;;;;2265384;61;20415;-67
2022/10/31 01:05:13;0.00;0.00;0.62;0.00;0.00;0.62;8.13;4.60;;;30.20;28.60;;;;;;2265048;61;20416;-67
2022/10/31 01:07:58;0.00;0.00;0.62;0.00;0.00;0.62;6.30;5.40;;;30.20;28.60;;;;;;2265853;61;20435;-67
2022/10/31 01:10:46;0.00;0.00;0.62;0.00;0.00;0.62;8.90;5.23;;;30.20;28.60;;;;;;2264672;61;20361;-67
2022/10/31 01:13:31;0.00;0.00;0.62;0.00;0.00;0.62;6.33;4.63;;;30.20;29.10;;;;;;2265220;61;20411;-67
2022/10/31 01:16:18;0.00;0.00;0.62;0.00;0.00;0.62;5.40;4.90;;;30.10;28.50;;;;;;2265049;61;20448;-67
2022/10/31 01:19:03;0.00;0.00;0.62;0.00;0.00;0.62;6.30;5.00;;;30.00;28.50;;;;;;2264651;61;20400;-67
2022/10/31 01:21:47;0.00;0.00;0.62;0.00;0.00;0.62;6.20;5.60;;;30.00;28.50;;;;;;2265839;61;20431;-67
2022/10/31 01:24:32;0.00;0.00;0.62;0.00;0.00;0.62;5.60;4.43;;;30.00;28.50;;;;;;2264906;61;20380;-67
2022/10/31 01:27:18;0.00;0.00;0.62;0.00;0.00;0.62;7.40;5.93;;;29.90;29.00;;;;;;2264525;61;20353;-67
2022/10/31 01:30:06;0.00;0.00;0.62;0.00;0.00;0.62;7.73;5.90;;;29.90;28.50;;;;;;2265478;61;20443;-67
2022/10/31 01:32:50;0.00;0.00;0.62;0.00;0.00;0.62;6.83;5.37;;;29.80;28.60;;;;;;2265339;61;20372;-67
2022/10/31 01:35:35;0.00;0.00;0.62;0.00;0.00;0.62;6.10;4.90;;;29.80;28.60;;;;;;2265437;61;20400;-67
2022/10/31 01:38:20;0.00;0.00;0.62;0.00;0.00;0.62;11.77;5.93;;;29.80;28.60;;;;;;2265032;61;20732;-67
2022/10/31 01:41:04;0.00;0.00;0.62;0.00;0.00;0.62;7.93;5.40;;;29.70;28.60;;;;;;2264888;61;20389;-67
2022/10/31 01:43:55;0.00;0.00;0.62;0.00;0.00;0.62;8.37;5.73;;;29.70;28.70;;;;;;2265596;61;20365;-67
2022/10/31 01:46:44;0.00;0.00;0.62;0.00;0.00;0.62;5.80;4.77;;;29.70;28.70;;;;;;2265519;61;20392;-67
2022/10/31 01:49:34;0.00;0.00;0.62;0.00;0.00;0.62;6.73;5.23;;;29.70;28.80;;;;;;2264551;61;20626;-67
2022/10/31 01:52:24;0.00;0.00;0.62;0.00;0.00;0.62;5.00;4.50;;;29.60;28.70;;;;;;2265692;61;20349;-67
2022/10/31 01:55:15;0.00;0.00;0.62;0.00;0.00;0.62;6.27;5.00;;;29.60;28.80;;;;;;2264400;61;20377;-67
2022/10/31 01:58:05;0.00;0.00;0.62;0.00;0.00;0.62;6.50;5.23;;;29.60;28.80;;;;;;2265743;61;20582;-67
2022/10/31 02:00:56;0.00;0.00;0.62;0.00;0.00;0.62;6.63;5.17;;;29.60;28.90;;;;;;2265040;61;20952;-68
2022/10/31 02:03:41;0.00;0.00;0.62;0.00;0.00;0.62;9.63;4.97;;;29.50;29.40;;;;;;2264573;61;20381;-68
2022/10/31 02:06:35;0.00;0.00;0.62;0.00;0.00;0.62;6.70;4.70;;;29.60;28.90;;;;;;2265279;61;20749;-68
2022/10/31 02:09:23;0.00;0.00;0.62;0.00;0.00;0.62;6.70;5.00;;;29.50;28.90;;;;;;2265409;61;20348;-67
2022/10/31 02:12:10;0.00;0.00;0.62;0.00;0.00;0.62;6.13;4.90;;;29.50;29.00;;;;;;2264997;61;20721;-67
2022/10/31 02:14:56;0.00;0.00;0.62;0.00;0.00;0.62;8.47;4.87;;;29.50;29.00;;;;;;2265112;61;20449;-67
2022/10/31 02:17:42;0.00;0.00;0.62;0.00;0.00;0.62;6.20;5.53;;;29.50;29.00;;;;;;2264777;61;20365;-67
2022/10/31 02:20:33;0.00;0.00;0.62;0.00;0.00;0.62;6.83;5.70;;;29.50;29.00;;;;;;2265580;61;20372;-67
2022/10/31 02:24:33;0.00;0.00;0.62;0.00;0.00;0.62;6.97;4.67;;;29.50;29.10;;;;;;2264816;61;20361;-67
2022/10/31 02:27:42;0.00;0.00;0.62;0.00;0.00;0.62;6.10;4.90;;;29.40;29.00;;;;;;2265037;61;20360;-67
2022/10/31 02:30:37;0.00;0.00;0.62;0.00;0.00;0.62;5.83;5.13;;;29.40;29.00;;;;;;2264897;61;20404;-67
2022/10/31 02:33:28;0.00;0.00;0.62;0.00;0.00;0.62;4.97;4.30;;;29.40;29.00;;;;;;2264132;61;20364;-67
2022/10/31 02:36:21;0.00;0.00;0.62;0.00;0.00;0.62;6.80;5.40;;;29.40;29.00;;;;;;2265113;61;20385;-67
2022/10/31 02:39:12;0.00;0.00;0.62;0.00;0.00;0.62;6.53;4.90;;;29.40;29.00;;;;;;2264993;61;20361;-67
2022/10/31 02:42:08;0.00;0.00;0.62;0.00;0.00;0.62;5.23;4.73;;;29.40;29.00;;;;;;2264937;61;20733;-67
2022/10/31 02:45:04;0.00;0.00;0.62;0.00;0.00;0.62;5.77;4.20;;;29.40;29.00;;;;;;2264743;61;20388;-68
2022/10/31 02:47:53;0.00;0.00;0.62;0.00;0.00;0.62;6.77;4.70;;;29.40;29.00;;;;;;2264329;61;20476;-67
2022/10/31 02:50:45;0.00;0.00;0.62;0.00;0.00;0.62;5.33;4.83;;;29.40;29.00;;;;;;2265590;61;20353;-67
2022/10/31 02:53:32;0.00;0.00;0.62;0.00;0.00;0.62;7.00;4.90;;;29.40;29.00;;;;;;2264924;61;20369;-67
2022/10/31 02:56:19;0.00;0.00;0.62;0.00;0.00;0.62;5.60;4.33;;;29.40;29.00;;;;;;2264241;61;20417;-67
2022/10/31 02:59:04;0.00;0.00;0.62;0.00;0.00;0.62;6.83;4.87;;;29.40;29.00;;;;;;2265079;61;20400;-67
2022/10/31 03:02:25;0.00;0.00;0.62;0.00;0.00;0.62;5.60;4.50;;;29.40;29.10;;;;;;2264439;61;20356;-67
2022/10/31 03:05:34;0.00;0.00;0.62;0.00;0.00;0.62;8.17;4.87;;;29.30;29.00;;;;;;2259740;61;20411;-67
2022/10/31 03:08:28;0.00;0.00;0.62;0.00;0.00;0.62;6.63;4.17;;;29.30;29.10;;;;;;2265341;61;20440;-67
2022/10/31 03:11:13;0.00;0.00;0.62;0.00;0.00;0.62;5.17;4.07;;;29.30;29.10;;;;;;2264444;61;20566;-67
2022/10/31 03:14:08;0.00;0.00;0.62;0.00;0.00;0.62;6.07;4.57;;;29.30;29.10;;;;;;2265127;61;20375;-67
2022/10/31 03:16:58;0.00;0.00;0.62;0.00;0.00;0.62;4.50;3.73;;;29.30;29.10;;;;;;2264403;61;20761;-67
2022/10/31 03:19:47;0.00;0.00;0.62;0.00;0.00;0.62;5.40;4.13;;;29.30;29.10;;;;;;2265450;61;20709;-67
2022/10/31 03:22:34;0.00;0.00;0.62;0.00;0.00;0.62;4.67;3.70;;;29.20;29.10;;;;;;2265170;61;20364;-67
2022/10/31 03:25:20;0.00;0.00;0.62;0.00;0.00;0.62;5.70;4.40;;;29.20;29.00;;;;;;2264613;61;20388;-67
2022/10/31 03:28:07;0.00;0.00;0.62;0.00;0.00;0.62;5.97;4.60;;;29.30;29.10;;;;;;2265144;61;20468;-67
2022/10/31 03:30:53;0.00;0.00;0.62;0.00;0.00;0.62;4.43;4.03;;;29.20;29.10;;;;;;2265096;61;20404;-67
2022/10/31 03:33:40;0.00;0.00;0.62;0.00;0.00;0.62;5.93;4.00;;;29.30;29.70;;;;;;2264438;61;20717;-67
2022/10/31 03:36:27;0.00;0.00;0.62;0.00;0.00;0.62;6.33;4.27;;;29.30;29.10;;;;;;2265188;61;20788;-67
2022/10/31 03:39:15;0.00;0.00;0.62;0.00;0.00;0.62;5.70;4.37;;;29.20;29.10;;;;;;2264483;61;20364;-67
2022/10/31 03:42:08;0.00;0.00;0.62;0.00;0.00;0.62;6.50;4.50;;;29.20;29.00;;;;;;2265561;61;20361;-67
2022/10/31 03:44:58;0.00;0.00;0.62;0.00;0.00;0.62;5.67;4.70;;;29.20;29.00;;;;;;2265109;61;20388;-66
2022/10/31 03:47:45;0.00;0.00;0.62;0.00;0.00;0.62;5.30;3.87;;;29.20;29.00;;;;;;2265033;61;20638;-67
2022/10/31 03:50:52;0.00;0.00;0.62;0.00;0.00;0.62;6.53;4.37;;;29.20;29.10;;;;;;2265733;61;20396;-67
2022/10/31 03:53:44;0.00;0.00;0.62;0.00;0.00;0.62;5.77;4.90;;;29.20;29.10;;;;;;2264783;61;20361;-66
2022/10/31 03:56:38;0.00;0.00;0.62;0.00;0.00;0.62;6.47;4.40;;;29.20;29.10;;;;;;2265668;61;20622;-67
2022/10/31 03:59:32;0.00;0.00;0.62;0.00;0.00;0.62;7.07;4.77;;;29.20;29.00;;;;;;2265233;61;20364;-67
2022/10/31 04:02:23;0.00;0.00;0.62;0.00;0.00;0.62;6.40;4.50;;;29.20;29.10;;;;;;2265163;61;20428;-67
2022/10/31 04:05:10;0.00;0.00;0.62;0.00;0.00;0.62;4.73;4.20;;;29.20;29.00;;;;;;2265488;61;20464;-67
2022/10/31 04:07:58;0.00;0.00;0.62;0.00;0.00;0.62;7.30;5.23;;;29.20;29.00;;;;;;2265709;61;20453;-67
2022/10/31 04:10:47;0.00;0.00;0.62;0.00;0.00;0.62;5.17;4.63;;;29.10;29.00;;;;;;2265388;61;20574;-67
2022/10/31 04:13:36;0.00;0.00;0.62;0.00;0.00;0.62;5.30;4.80;;;29.10;29.00;;;;;;2265312;61;20477;-67
2022/10/31 04:16:28;0.00;0.00;0.62;0.00;0.00;0.62;5.10;4.20;;;29.10;29.00;;;;;;2264719;61;20439;-67
2022/10/31 04:19:14;0.00;0.00;0.62;0.00;0.00;0.62;6.83;4.17;;;29.10;29.00;;;;;;2265676;61;20373;-67
2022/10/31 04:21:59;0.00;0.00;0.62;0.00;0.00;0.62;3.90;3.50;;;29.10;29.00;;;;;;2265263;61;20360;-67
2022/10/31 04:24:44;0.00;0.00;0.62;0.00;0.00;0.62;5.33;4.77;;;29.10;29.00;;;;;;2264709;61;20427;-67
2022/10/31 04:27:32;0.00;0.00;0.62;0.00;0.00;0.62;5.23;3.97;;;29.10;29.00;;;;;;2265678;61;20373;-67
2022/10/31 04:30:17;0.00;0.00;0.62;0.00;0.00;0.62;4.80;4.00;;;29.00;29.00;;;;;;2265352;61;20372;-67
2022/10/31 04:33:03;0.00;0.00;0.62;0.00;0.00;0.62;4.30;3.70;;;29.00;29.00;;;;;;2265459;61;20733;-67
2022/10/31 04:35:48;0.00;0.00;0.62;0.00;0.00;0.62;4.77;3.70;;;29.10;29.10;;;;;;2265103;61;20407;-67
2022/10/31 04:38:33;0.00;0.00;0.62;0.00;0.00;0.62;6.40;4.13;;;29.00;29.00;;;;;;2264837;61;20361;-67
2022/10/31 04:41:18;0.00;0.00;0.62;0.00;0.00;0.62;5.00;4.30;;;29.00;29.10;;;;;;2265456;61;20364;-67
2022/10/31 04:44:11;0.00;0.00;0.62;0.00;0.00;0.62;5.33;3.67;;;29.00;29.10;;;;;;2265203;61;20579;-67
2022/10/31 04:46:55;0.00;0.00;0.62;0.00;0.00;0.62;5.03;3.83;;;29.00;29.10;;;;;;2264694;61;20361;-67
2022/10/31 04:49:42;0.00;0.00;0.62;0.00;0.00;0.62;6.60;4.10;;;29.00;29.10;;;;;;2265602;61;20354;-67
2022/10/31 04:52:30;0.00;0.00;0.62;0.00;0.00;0.62;5.07;4.00;;;29.00;29.10;;;;;;2265375;61;20461;-67
2022/10/31 04:55:15;0.00;0.00;0.62;0.00;0.00;0.62;4.73;4.23;;;29.00;29.10;;;;;;2265008;61;20380;-67
2022/10/31 04:58:19;0.00;0.00;0.62;0.00;0.00;0.62;4.37;3.83;;;29.00;29.20;;;;;;2265639;61;20388;-67
2022/10/31 05:01:03;0.00;0.00;0.62;0.00;0.00;0.62;6.03;3.97;;;29.00;29.20;;;;;;2264679;61;20361;-67
2022/10/31 05:03:48;0.00;0.00;0.62;0.00;0.00;0.62;4.73;3.77;;;29.00;29.80;;;;;;2265254;61;20410;-67
2022/10/31 05:06:34;0.00;0.00;0.62;0.00;0.00;0.62;4.80;4.17;;;29.00;29.20;;;;;;2265656;61;20411;-66
2022/10/31 05:09:19;0.00;0.00;0.62;0.00;0.00;0.62;5.13;4.60;;;28.90;29.20;;;;;;2264684;61;20365;-67
2022/10/31 05:12:05;0.00;0.00;0.62;0.00;0.00;0.62;5.30;4.50;;;28.90;29.30;;;;;;2265470;61;20361;-67
2022/10/31 05:15:10;0.00;0.00;0.62;0.00;0.00;0.62;4.70;3.53;;;28.90;29.20;;;;;;2265209;61;20377;-67
2022/10/31 05:18:13;0.00;0.00;0.62;0.00;0.00;0.62;4.13;3.70;;;28.90;29.20;;;;;;2266051;61;20357;-67
2022/10/31 05:21:11;0.00;0.00;0.62;0.00;0.00;0.62;5.83;4.07;;;28.90;29.30;;;;;;2265797;61;20369;-67
2022/10/31 05:24:03;0.00;0.00;0.62;0.00;0.00;0.62;10.27;3.90;;;28.90;29.20;;;;;;2264681;61;20353;-67
2022/10/31 05:26:49;0.00;0.00;0.62;0.00;0.00;0.62;5.40;3.57;;;28.90;29.20;;;;;;2265641;61;20369;-67
2022/10/31 05:29:34;0.00;0.00;0.62;0.00;0.00;0.62;5.83;3.77;;;28.90;29.30;;;;;;2265946;61;20392;-67
2022/10/31 05:32:22;0.00;0.00;0.62;0.00;0.00;0.62;5.30;3.70;;;28.90;29.20;;;;;;2265085;61;20650;-66
2022/10/31 05:35:28;0.00;0.00;0.62;0.00;0.00;0.62;5.10;4.17;;;28.90;29.20;;;;;;2265428;61;20430;-67
2022/10/31 05:38:31;0.00;0.00;0.62;0.00;0.00;0.62;6.37;5.77;;;28.90;29.20;;;;;;2264600;61;20361;-66
2022/10/31 05:41:21;0.00;0.00;0.62;0.00;0.00;0.62;5.50;4.63;;;28.80;29.10;;;;;;2265363;61;20732;-67
2022/10/31 05:44:07;0.00;0.00;0.62;0.00;0.00;0.62;6.77;4.30;;;28.80;29.10;;;;;;2265118;61;20381;-67
2022/10/31 05:47:02;0.00;0.00;0.62;0.00;0.00;0.62;5.13;4.20;;;28.80;29.10;;;;;;2264999;61;20361;-66
2022/10/31 05:50:17;0.00;0.00;0.62;0.00;0.00;0.62;5.30;4.00;;;28.80;29.10;;;;;;2261888;61;20590;-67
2022/10/31 05:53:16;0.00;0.00;0.62;0.00;0.00;0.62;4.13;3.50;;;28.80;29.10;;;;;;2264382;61;20717;-67
2022/10/31 05:56:01;0.00;0.00;0.62;0.00;0.00;0.62;7.03;4.50;;;28.80;29.10;;;;;;2265128;61;20413;-67
2022/10/31 05:58:48;0.00;0.00;0.62;0.00;0.00;0.62;4.70;3.80;;;28.80;29.20;;;;;;2265283;61;20388;-66
2022/10/31 06:01:33;0.00;0.00;0.62;0.00;0.00;0.62;5.63;3.93;;;28.70;29.10;;;;;;2264453;61;20365;-66
2022/10/31 06:04:23;0.00;0.00;0.62;0.00;0.00;0.62;4.50;3.40;;;28.70;29.10;;;;;;2264823;61;20619;-66
2022/10/31 06:07:10;0.00;0.00;0.62;0.00;0.00;0.62;5.30;4.23;;;28.70;29.20;;;;;;2264585;61;20377;-66
2022/10/31 06:09:56;0.00;0.00;0.62;0.00;0.00;0.62;5.07;3.90;;;28.70;29.20;;;;;;2265358;61;20365;-65
2022/10/31 06:12:41;0.00;0.00;0.62;0.00;0.00;0.62;5.20;4.03;;;28.70;29.70;;;;;;2264947;61;20360;-65
2022/10/31 06:15:53;0.00;0.00;0.62;0.00;0.00;0.62;6.67;4.10;;;28.70;29.20;;;;;;2264531;61;20819;-67
2022/10/31 06:18:41;0.00;0.00;0.62;0.00;0.00;0.62;5.80;4.43;;;28.70;29.20;;;;;;2265365;61;20365;-67
2022/10/31 06:21:28;0.00;0.00;0.62;0.00;0.00;0.62;5.23;4.27;;;28.70;29.20;;;;;;2264700;61;20366;-67
2022/10/31 06:24:12;0.00;0.00;0.62;0.00;0.00;0.62;4.80;3.63;;;28.70;29.20;;;;;;2265259;61;20364;-65
2022/10/31 06:27:24;0.00;0.00;0.62;0.00;0.00;0.62;3.90;3.40;;;28.70;29.20;;;;;;2264758;61;20373;-67
2022/10/31 06:30:10;0.00;0.00;0.62;0.00;0.00;0.62;4.70;3.80;;;28.70;29.30;;;;;;2264305;61;20364;-67
2022/10/31 06:33:03;0.00;0.00;0.62;0.00;0.00;0.62;5.20;3.73;;;28.60;29.20;;;;;;2265337;61;20406;-64
2022/10/31 06:35:48;0.00;0.00;0.62;0.00;0.00;0.62;4.30;3.90;;;28.60;29.20;;;;;;2264757;61;20388;-70
2022/10/31 06:38:33;0.00;0.00;0.62;0.00;0.00;0.62;5.47;4.07;;;28.60;29.20;;;;;;2264423;61;20399;-69
2022/10/31 06:41:18;0.00;0.00;0.62;0.00;0.00;0.62;4.40;3.60;;;28.60;29.20;;;;;;2265425;61;20352;-71
2022/10/31 06:44:07;0.00;0.00;0.62;0.00;0.00;0.62;5.50;4.30;;;28.60;29.20;;;;;;2261515;61;20400;-68
2022/10/31 06:47:21;0.00;0.00;0.62;0.00;0.00;0.62;5.53;3.97;;;28.60;29.30;;;;;;2264992;61;20368;-64
2022/10/31 06:50:25;0.00;0.00;0.62;0.00;0.00;0.62;5.93;3.90;;;28.60;29.30;;;;;;2264857;61;20368;-65
2022/10/31 06:53:11;0.00;0.00;0.62;0.00;0.00;0.62;5.43;4.87;;;28.60;29.20;;;;;;2264462;61;20720;-69
2022/10/31 06:55:56;0.00;0.00;0.62;0.00;0.00;0.62;4.80;3.83;;;28.60;29.20;;;;;;2265296;61;20385;-74
2022/10/31 06:58:41;0.00;0.00;0.62;0.00;0.00;0.62;5.20;4.00;;;28.60;29.20;;;;;;2264299;61;20369;-69
2022/10/31 07:01:27;0.00;0.00;0.62;0.00;0.00;0.62;4.93;4.00;;;28.60;29.30;;;;;;2265266;61;20532;-66
2022/10/31 07:04:13;0.00;0.00;0.62;0.00;0.00;0.62;4.10;3.70;;;28.60;29.30;;;;;;2264694;61;20419;-69
2022/10/31 07:06:59;0.00;0.00;0.62;0.00;0.00;0.62;5.30;4.73;;;28.50;29.30;;;;;;2264143;61;20365;-69
2022/10/31 07:09:43;0.00;0.00;0.62;0.00;0.00;0.62;5.13;4.17;;;28.60;29.30;;;;;;2265434;61;20366;-64
2022/10/31 07:12:29;0.00;0.00;0.62;0.00;0.00;0.62;5.63;4.50;;;28.60;29.30;;;;;;2265030;61;20392;-69
2022/10/31 07:15:17;0.00;0.00;0.62;0.00;0.00;0.62;5.23;3.80;;;28.60;29.30;;;;;;2264144;61;20377;-68
2022/10/31 07:18:03;0.00;0.00;0.62;0.00;0.00;0.62;5.13;3.73;;;28.50;29.20;;;;;;2261744;61;20389;-65
2022/10/31 07:20:49;0.00;0.00;0.62;0.00;0.00;0.62;4.63;4.10;;;28.50;29.20;;;;;;2261129;61;20377;-68
2022/10/31 07:23:35;0.00;0.00;0.62;0.00;0.00;0.62;5.40;4.40;;;28.60;29.30;;;;;;2261048;61;20366;-68
2022/10/31 07:26:39;0.00;0.00;0.62;0.00;0.00;0.62;6.33;3.70;;;28.60;29.30;;;;;;2261927;61;20416;-67
2022/10/31 07:29:23;0.00;0.00;0.62;0.00;0.00;0.62;4.73;3.23;;;28.50;29.30;;;;;;2258160;61;20393;-63
2022/10/31 07:32:08;0.00;0.00;0.62;0.00;0.00;0.62;5.00;3.80;;;28.50;29.30;;;;;;2263214;61;20409;-72
2022/10/31 07:34:57;0.00;0.00;0.62;0.00;0.00;0.62;5.43;4.20;;;28.50;29.30;;;;;;2265349;61;20381;-72
2022/10/31 07:37:50;0.00;0.00;0.62;0.00;0.00;0.62;5.37;4.17;;;28.50;29.30;;;;;;2265116;61;20499;-67
2022/10/31 07:40:36;0.00;0.00;0.62;0.00;0.00;0.62;3.93;3.47;;;28.50;29.30;;;;;;2265383;61;20360;-70
2022/10/31 07:43:22;0.00;0.00;0.62;0.00;0.00;0.62;4.93;4.03;;;28.50;29.30;;;;;;2263415;61;20607;-70
2022/10/31 07:46:30;0.00;0.00;0.62;0.00;0.00;0.62;4.70;4.13;;;28.50;29.40;;;;;;2498147;53;20389;-73
2022/10/31 07:49:49;0.00;0.00;0.62;0.00;0.00;0.62;4.30;3.90;;;28.50;29.40;;;;;;2534172;45;20587;-67
2022/10/31 07:53:03;0.00;0.00;0.62;0.00;0.00;0.62;4.87;3.97;;;28.50;29.40;;;;;;2265730;61;20399;-65
2022/10/31 07:56:08;0.00;0.00;0.62;0.00;0.00;0.62;4.17;3.67;;;28.50;29.40;;;;;;2265698;61;20404;-74
2022/10/31 07:58:52;0.00;0.00;0.62;0.00;0.00;0.62;4.40;3.90;;;28.50;29.50;;;;;;2264792;61;20368;-63
2022/10/31 08:01:37;0.00;0.00;0.62;0.00;0.00;0.62;5.50;4.03;;;28.50;29.50;;;;;;2266064;61;20395;-69
2022/10/31 08:04:42;0.00;0.00;0.62;0.00;0.00;0.62;4.63;4.13;;;28.50;29.40;;;;;;2265544;61;20466;-64
2022/10/31 08:07:53;0.00;0.00;0.62;0.00;0.00;0.62;5.03;4.63;;;28.50;29.40;;;;;;2265672;61;20365;-64
2022/10/31 08:10:40;0.00;0.00;0.62;0.00;0.00;0.62;7.87;5.07;;;28.50;29.40;;;;;;2265452;61;20360;-69
2022/10/31 08:13:28;0.00;0.00;0.62;0.00;0.00;0.62;7.03;5.47;;;28.50;29.40;;;;;;2264521;61;20362;-69
2022/10/31 08:16:13;0.00;0.00;0.62;0.00;0.00;0.62;5.93;4.67;;;28.40;29.30;;;;;;2265734;61;20504;-70
2022/10/31 08:19:08;0.00;0.00;0.62;0.00;0.00;0.62;4.37;3.97;;;28.40;29.30;;;;;;2265597;61;20837;-74
2022/10/31 08:21:58;0.00;0.00;0.62;0.00;0.00;0.62;5.00;4.10;;;28.40;29.40;;;;;;2259556;61;20651;-65
2022/10/31 08:24:42;0.00;0.00;0.62;0.00;0.00;0.62;4.00;3.60;;;28.40;29.40;;;;;;2265608;61;20373;-69
2022/10/31 08:27:27;0.00;0.00;0.62;0.00;0.00;0.62;4.53;3.97;;;28.50;29.50;;;;;;2265272;61;20356;-65
2022/10/31 08:30:17;0.00;0.00;0.62;0.00;0.00;0.62;4.53;3.90;;;28.50;29.50;;;;;;2264955;61;20709;-69
2022/10/31 08:33:16;0.00;0.00;0.62;0.00;0.00;0.62;5.20;3.97;;;28.50;29.50;;;;;;2265064;61;20415;-67
2022/10/31 08:36:20;0.00;0.00;0.62;0.00;0.00;0.62;4.30;3.40;;;28.50;29.50;;;;;;2265195;61;20715;-68
2022/10/31 08:39:11;0.00;0.00;0.62;0.00;0.00;0.62;4.00;3.67;;;28.50;29.50;;;;;;2265723;61;20361;-71
2022/10/31 08:41:57;0.00;0.00;0.62;0.00;0.00;0.62;4.67;4.17;;;28.50;29.50;;;;;;2265452;61;20353;-71
2022/10/31 08:44:41;0.00;0.00;0.62;0.00;0.00;0.62;4.70;3.70;;;28.50;29.50;;;;;;2264583;61;20431;-68
2022/10/31 08:47:28;0.00;0.00;0.62;0.00;0.00;0.62;4.33;3.93;;;28.60;29.60;;;;;;2265483;61;20464;-70
2022/10/31 08:50:14;0.00;0.00;0.62;0.00;0.00;0.62;4.50;4.10;;;28.60;29.60;;;;;;2265502;61;20369;-65
2022/10/31 08:53:03;0.00;0.00;0.62;0.00;0.00;0.62;4.63;4.23;;;28.60;29.60;;;;;;2265279;61;20361;-69
2022/10/31 08:55:48;0.00;0.00;0.62;0.00;0.00;0.62;5.43;4.80;;;28.60;29.60;;;;;;2265473;61;20381;-68
2022/10/31 08:58:44;0.00;0.00;0.62;0.00;0.00;0.62;7.77;5.50;;;28.60;29.50;;;;;;2264788;61;20357;-69
2022/10/31 09:01:29;0.00;0.00;0.62;0.00;0.00;0.62;5.00;4.50;;;28.60;29.50;;;;;;2265650;61;20361;-66
2022/10/31 09:04:16;0.00;0.00;0.62;0.00;0.00;0.62;5.10;4.60;;;28.60;29.60;;;;;;2265537;61;20596;-66
2022/10/31 09:07:01;0.00;0.00;0.62;0.00;0.00;0.62;5.00;4.33;;;28.60;29.60;;;;;;2264404;61;20380;-70
2022/10/31 09:09:46;0.00;0.00;0.62;0.00;0.00;0.62;5.50;4.90;;;28.70;29.60;;;;;;2265686;61;20745;-71
2022/10/31 09:12:31;0.00;0.00;0.62;0.00;0.00;0.62;7.43;4.80;;;28.70;29.60;;;;;;2265448;61;20404;-64
2022/10/31 09:15:38;0.00;0.00;0.62;0.00;0.00;0.62;4.80;4.30;;;28.70;29.70;;;;;;2265717;61;20381;-68
2022/10/31 09:18:36;0.00;0.00;0.62;0.00;0.00;0.62;4.93;4.33;;;28.80;29.70;;;;;;2265490;61;20396;-68
2022/10/31 09:21:22;0.00;0.00;0.62;0.00;0.00;0.62;6.57;4.33;;;28.80;29.70;;;;;;2265265;61;20392;-68
2022/10/31 09:24:08;0.00;0.00;0.62;0.00;0.00;0.62;6.20;4.93;;;28.80;29.70;;;;;;2265365;61;20492;-72
2022/10/31 09:26:52;0.00;0.00;0.62;0.00;0.00;0.62;5.53;4.93;;;28.80;29.70;;;;;;2265526;61;20399;-70
2022/10/31 09:29:45;0.00;0.00;0.62;0.00;0.00;0.62;6.10;4.90;;;28.90;29.80;;;;;;2264958;61;20365;-72
2022/10/31 09:32:31;0.00;0.00;0.62;0.00;0.00;0.62;5.77;4.63;;;28.90;29.70;;;;;;2265409;61;20702;-65
2022/10/31 09:35:16;0.00;0.00;0.62;0.00;0.00;0.62;6.33;4.43;;;28.90;29.70;;;;;;2264575;61;20400;-65
2022/10/31 09:38:06;0.00;0.00;0.62;0.00;0.00;0.62;4.63;4.00;;;28.90;29.70;;;;;;2265114;61;20424;-66
2022/10/31 09:41:18;0.00;0.00;0.62;0.00;0.00;0.62;5.93;4.70;;;28.90;29.60;;;;;;2280338;61;20450;-72
2022/10/31 09:44:14;0.00;0.00;0.62;0.00;0.00;0.62;6.63;4.67;;;28.90;29.70;;;;;;2262520;61;20378;-66
2022/10/31 09:47:11;0.00;0.00;0.62;0.00;0.00;0.62;4.70;4.07;;;28.90;29.70;;;;;;2265420;61;20451;-71
2022/10/31 09:50:17;0.00;0.00;0.62;0.00;0.00;0.62;5.20;4.00;;;29.00;29.70;;;;;;2264403;61;20439;-71
2022/10/31 09:53:10;0.00;0.00;0.62;0.00;0.00;0.62;6.70;5.13;;;29.00;29.70;;;;;;2265708;61;20356;-65
2022/10/31 09:55:56;0.00;0.00;0.62;0.00;0.00;0.62;5.00;3.63;;;29.00;29.60;;;;;;2265439;61;20428;-70
2022/10/31 09:58:46;0.00;0.00;0.62;0.00;0.00;0.62;4.97;4.50;;;29.00;29.60;;;;;;2264605;61;20361;-64
2022/10/31 10:01:39;0.00;0.00;0.62;0.00;0.00;0.62;4.80;3.67;;;29.00;29.50;;;;;;2265059;61;20495;-68
2022/10/31 10:04:40;0.00;0.00;0.62;0.00;0.00;0.62;5.93;3.90;;;29.00;29.50;;;;;;2264934;61;20385;-68
2022/10/31 10:07:49;0.00;0.00;0.62;0.00;0.00;0.62;4.83;3.70;;;29.00;30.00;;;;;;2265578;61;20401;-72
2022/10/31 10:11:04;0.00;0.00;0.62;0.00;0.00;0.62;3.80;3.40;;;29.00;29.50;;;;;;2265522;61;20412;-68
2022/10/31 10:14:33;0.00;0.00;0.62;0.00;0.00;0.62;4.87;3.67;;;29.00;29.50;;;;;;2264766;61;20431;-67
2022/10/31 10:17:32;0.00;0.00;0.62;0.00;0.00;0.62;4.93;3.63;;;29.00;29.50;;;;;;2265507;61;20612;-68
2022/10/31 10:20:30;0.00;0.00;0.62;0.00;0.00;0.62;6.30;4.10;;;29.10;29.60;;;;;;2264873;61;20364;-64
2022/10/31 10:23:35;0.00;0.00;0.62;0.00;0.00;0.62;5.43;3.60;;;29.10;30.00;;;;;;2265610;61;20830;-62
2022/10/31 10:26:26;0.00;0.00;0.62;0.00;0.00;0.62;5.67;3.70;;;29.10;29.50;;;;;;2265602;61;20372;-61
2022/10/31 10:29:33;0.00;0.00;0.62;0.00;0.00;0.62;5.90;3.67;;;29.10;29.60;;;;;;2265067;61;20788;-68
2022/10/31 10:32:24;0.00;0.00;0.62;0.00;0.00;0.62;4.37;3.30;;;29.10;29.60;;;;;;2265555;61;20384;-67
2022/10/31 10:35:20;0.00;0.00;0.62;0.00;0.00;0.62;4.23;3.40;;;29.10;29.60;;;;;;2264279;61;20405;-68
2022/10/31 10:38:17;0.00;0.00;0.62;0.00;0.00;0.62;7.40;3.27;;;29.10;29.60;;;;;;2265728;61;20435;-65
2022/10/31 10:41:09;0.00;0.00;0.62;0.00;0.00;0.62;4.70;3.87;;;29.10;29.60;;;;;;2265521;61;20360;-66
2022/10/31 10:43:56;0.00;0.00;0.62;0.00;0.00;0.62;4.40;3.43;;;29.10;29.60;;;;;;2264850;61;20437;-62
2022/10/31 10:49:51;0.00;0.00;0.62;0.00;0.00;0.62;5.30;3.47;;;29.10;29.60;;;;;;2264782;61;20385;-70
2022/10/31 10:52:58;0.00;0.00;0.62;0.00;0.00;0.62;3.83;3.13;;;29.10;29.60;;;;;;2265640;61;20732;-71
2022/10/31 10:55:51;0.00;0.00;0.62;0.00;0.00;0.62;4.53;3.23;;;29.20;29.60;;;;;;2265433;61;20385;-70
2022/10/31 10:58:37;0.00;0.00;0.62;0.00;0.00;0.62;5.90;3.87;;;29.20;29.60;;;;;;2264652;61;20566;-62
2022/10/31 11:01:23;0.00;0.00;0.62;0.00;0.00;0.62;4.93;3.97;;;29.10;29.50;;;;;;2265321;61;20464;-64
2022/10/31 11:04:26;0.00;0.00;0.62;0.00;0.00;0.62;4.90;4.27;;;29.20;29.50;;;;;;2264788;61;20736;-65
2022/10/31 11:07:12;0.00;0.00;0.62;0.00;0.00;0.62;3.87;3.13;;;29.20;29.50;;;;;;2265580;61;20713;-65
2022/10/31 11:10:04;0.00;0.00;0.62;0.00;0.00;0.62;5.20;3.70;;;29.20;29.60;;;;;;2265665;61;20729;-68
2022/10/31 11:13:06;0.00;0.00;0.62;0.00;0.00;0.62;3.77;3.30;;;29.20;29.60;;;;;;2264754;61;20599;-68
2022/10/31 11:15:58;0.00;0.00;0.62;0.00;0.00;0.62;3.37;3.07;;;29.20;29.60;;;;;;2265474;61;20380;-69
2022/10/31 11:18:46;0.00;0.00;0.62;0.00;0.00;0.62;3.70;2.80;;;29.20;29.60;;;;;;2265564;61;20360;-69